• Join FlightAware (Why Join?)
  • Login
  • US Flag 
07:39AM EDT


 

Airport Tracker/Info


-or-


 

Live Flight TrackerFlight Track Log ✈ DAL268 ✈ 25-Aug-2013 ✈ KSFO - KJFK

Flight Track Log - Related Links

Times and Time Zones

All times are in EDT time to prevent confusion due to time zone crossing. See the DAL268 flight status page for this flight to view local times or setup timezone preferences in your user account.

Time Position Orientation Groundspeed Altitude Reporting Facility
EDT Latitude Longitude Course Direction KTS MPH feet Rate Location/Type
02:28PM 37.6333 -122.3667 38° Northeast 180 207 700  Level Northern Cal TRACON
02:29PM 37.6667 -122.3167 50° Northeast 230 265 2,300 2,100 Climbing Northern Cal TRACON
02:30PM 37.7333 -122.2333 45° Northeast 310 357 4,900 2,640 Climbing Northern Cal TRACON
02:31PM 37.7833 -122.1667 46° Northeast 293 337 7,600 2,340 Climbing Northern Cal TRACON
02:32PM 37.6806 -122.3028 38° Northeast  Level FlightAware Approximate
02:33PM 37.7820 -122.2013 38° Northeast  Level FlightAware Approximate
02:33PM 37.8753 -122.0597 43° Northeast 323 372 10,700  Level Oakland Center
02:34PM 37.8835 -122.0998 38° Northeast  Level FlightAware Approximate
02:34PM 37.9614 -121.9844 35° Northeast 377 434 12,100  Level Oakland Center
02:35PM 38.0531 -121.9011 36° Northeast 406 467 14,500 2,100 Climbing Oakland Center
02:36PM 38.1489 -121.8164 35° Northeast 422 486 16,500 1,860 Climbing Oakland Center
02:37PM 38.2481 -121.7281 35° Northeast 436 502 18,400 1,680 Climbing Oakland Center
02:38PM 38.3511 -121.6350 35° Northeast 452 520 20,000 1,680 Climbing Oakland Center
02:39PM 38.4469 -121.4800 52° Northeast 467 537 21,900 1,560 Climbing Oakland Center
02:40PM 38.5164 -121.3353 58° Northeast 474 545 23,300 1,320 Climbing Oakland Center
02:41PM 38.5900 -121.1883 57° Northeast 486 559 24,700 1,260 Climbing Oakland Center
02:42PM 38.6578 -121.0522 57° Northeast 501 577 25,900 960 Climbing Oakland Center
02:43PM 38.7503 -120.8650 58° Northeast 517 595 26,800 960 Climbing Oakland Center
02:44PM 38.8292 -120.7028 58° Northeast 532 612 27,900 1,080 Climbing Oakland Center
02:45PM 38.9086 -120.5397 58° Northeast 538 619 29,100 1,320 Climbing Oakland Center
02:46PM 38.9881 -120.3767 58° Northeast 539 620 30,700 1,380 Climbing Oakland Center
02:47PM 39.0650 -120.2161 58° Northeast 532 612 32,000 1,080 Climbing Oakland Center
02:48PM 39.1375 -120.0625 59° Northeast 523 602 33,000 1,020 Climbing Oakland Center
02:49PM 39.2294 -119.8703 58° Northeast 525 604 34,100 780 Climbing Oakland Center
02:50PM 39.3081 -119.7094 58° Northeast 530 610 34,700 420 Climbing Oakland Center
02:51PM 39.3844 -119.5450 59° Northeast 533 613 35,000 120 Climbing Oakland Center
02:52PM 39.4639 -119.3797 58° Northeast 538 619 35,000  Level Oakland Center
02:53PM 39.5411 -119.2119 59° Northeast 539 620 35,000  Level Oakland Center
02:54PM 39.6206 -119.0425 59° Northeast 542 624 35,000  Level Oakland Center
02:55PM 39.6989 -118.8722 59° Northeast 542 624 35,000  Level Oakland Center
02:56PM 39.7767 -118.7031 59° Northeast 539 620 35,000  Level Oakland Center
02:58PM 39.8528 -118.5347 59° Northeast 536 617 35,000  Level Oakland Center
02:59PM 39.9272 -118.3694 60° Northeast 530 610 35,000  Level Oakland Center
03:00PM 40.0014 -118.2053 59° Northeast 525 604 35,000  Level Oakland Center
03:01PM 40.0903 -118.0069 60° Northeast 527 606 35,000  Level Oakland Center
03:02PM 40.1639 -117.8439 59° Northeast 521 600 35,000  Level Oakland Center
03:03PM 40.2364 -117.6778 60° Northeast 524 603 35,000  Level Oakland Center
03:04PM 40.3064 -117.5225 59° Northeast 527 606 35,000  Level Oakland Center
03:05PM 40.3881 -117.3383 60° Northeast 523 602 35,000  Level Oakland Center
03:06PM 40.4581 -117.1794 60° Northeast 521 600 35,000  Level Oakland Center
03:07PM 40.5289 -117.0181 60° Northeast 524 603 35,000  Level Oakland Center
03:08PM 40.6006 -116.8228 64° Northeast 517 595 35,000  Level Oakland Center
03:09PM 40.6425 -116.6528 72° East 510 587 35,000  Level Oakland Center
03:10PM 40.7108 -116.3967 71° East 511 588 35,000 60 Level Salt Lake Center
03:11PM 40.7631 -116.1986 71° East 513 590 35,300 300 Climbing Salt Lake Center
03:12PM 40.8114 -116.0275 69° East 518 596 35,700 540 Climbing Salt Lake Center
03:13PM 40.8639 -115.8253 71° East 519 597 36,500 600 Climbing Salt Lake Center
03:14PM 40.9083 -115.6531 71° East 518 596 37,000 120 Climbing Salt Lake Center
03:16PM 40.9524 -115.4753 72° East  Level FlightAware Approximate
03:17PM 41.0042 -115.2800 72° East 517 595 37,000  Level Salt Lake Center
03:18PM 41.0472 -115.1058 72° East 518 596 37,000  Level Salt Lake Center
03:19PM 41.0994 -114.9061 71° East 516 594 37,000  Level Salt Lake Center
03:20PM 41.1450 -114.7253 71° East 516 594 37,000  Level Salt Lake Center
03:21PM 41.1900 -114.5472 71° East 512 589 37,000  Level Salt Lake Center
03:22PM 41.2350 -114.3672 72° East 514 592 37,000  Level Salt Lake Center
03:23PM 41.2878 -114.1494 72° East 516 594 37,000  Level Salt Lake Center
03:24PM 41.3322 -113.9672 72° East 518 596 37,000  Level Salt Lake Center
03:25PM 41.3719 -113.7828 74° East 519 597 37,000  Level Salt Lake Center
03:26PM 41.3950 -113.5956 81° East 515 593 37,000  Level Salt Lake Center
03:27PM 41.4189 -113.4100 80° East 510 587 37,000  Level Salt Lake Center
03:28PM 41.4414 -113.2239 81° East 509 586 37,000  Level Salt Lake Center
03:29PM 41.4631 -113.0375 81° East 510 587 37,000  Level Salt Lake Center
03:30PM 41.4906 -112.8136 81° East 510 587 37,000  Level Salt Lake Center
03:31PM 41.5136 -112.6267 81° East 511 588 37,000  Level Salt Lake Center
03:32PM 41.5358 -112.4378 81° East 515 593 37,000  Level Salt Lake Center
03:33PM 41.5556 -112.2494 82° East 513 590 37,000  Level Salt Lake Center
03:34PM 41.5750 -112.0608 82° East 511 588 37,000  Level Salt Lake Center
03:35PM 41.5944 -111.8714 82° East 512 589 37,000  Level Salt Lake Center
03:36PM 41.6131 -111.6831 82° East 510 587 37,000  Level Salt Lake Center
03:37PM 41.6356 -111.4567 82° East 511 588 37,000  Level Salt Lake Center
03:38PM 41.6547 -111.2692 82° East 508 585 37,000 240 Level Salt Lake Center
03:39PM 41.6722 -111.0797 83° East 511 588 37,500 660 Climbing Salt Lake Center
03:40PM 41.6917 -110.8775 83° East 508 585 38,400 720 Climbing Salt Lake Center
03:41PM 41.7075 -110.7006 83° East 500 575 39,000 240 Climbing Salt Lake Center
03:42PM 41.7258 -110.4944 83° East 500 575 39,000  Level Salt Lake Center
03:43PM 41.7417 -110.3164 83° East 503 579 39,000  Level Salt Lake Center
03:44PM 41.7603 -110.1025 83° East 514 592 39,000  Level Salt Lake Center
03:45PM 41.7758 -109.9178 83° East 519 597 39,000  Level Salt Lake Center
03:47PM 41.7919 -109.7322 83° East 522 601 39,000  Level Salt Lake Center
03:48PM 41.8269 -109.5161 78° East 531 611 39,000  Level Salt Lake Center
03:49PM 41.8628 -109.3314 75° East 531 611 39,000  Level Salt Lake Center
03:50PM 41.9028 -109.1161 76° East 530 610 39,000  Level Salt Lake Center
03:51PM 41.9378 -108.9328 76° East 527 606 39,000  Level Salt Lake Center
03:52PM 41.9781 -108.7183 76° East 528 608 39,000  Level Salt Lake Center
03:53PM 42.0117 -108.5367 76° East 524 603 39,000  Level Salt Lake Center
03:54PM 42.0433 -108.3539 77° East 524 603 39,000  Level Salt Lake Center
03:55PM 42.0539 -108.1392 86° East 515 593 39,000  Level Salt Lake Center
03:56PM 42.0525 -107.9508 91° East 523 602 39,000  Level Salt Lake Center
03:57PM 42.0567 -107.7364 88° East 517 595 39,000  Level Salt Lake Center
03:58PM 42.0592 -107.5542 89° East 511 588 39,000  Level Salt Lake Center
03:59PM 42.0633 -107.3386 88° East 515 593 39,000  Level Salt Lake Center
04:00PM 42.0669 -107.1556 88° East 512 589 39,000  Level Salt Lake Center
04:01PM 42.0678 -106.9403 90° East 515 593 39,000  Level Salt Lake Center
04:02PM 42.0700 -106.7553 89° East 516 594 39,000  Level Salt Lake Center
04:03PM 42.0714 -106.5539 89° East 514 592 39,000  Level Salt Lake Center
04:04PM 42.0728 -106.3700 89° East 515 593 39,000  Level Salt Lake Center
04:05PM 42.0736 -106.1542 90° East 516 594 39,000  Level Salt Lake Center
04:06PM 42.0753 -105.9719 89° East 512 589 39,000  Level Salt Lake Center
04:07PM 42.0767 -105.6961 90° East 515 593 39,000  Level Denver Center
04:09PM 42.0758 -105.5131 90° East 511 588 39,000  Level Denver Center
04:10PM 42.0742 -105.2986 91° East 514 592 39,000  Level Denver Center
04:11PM 42.0769 -105.1178 89° East 512 589 39,000  Level Denver Center
04:12PM 42.1036 -104.9092 80° East 511 588 39,000  Level Denver Center
04:13PM 42.1386 -104.7350 75° East 509 586 39,000  Level Denver Center
04:14PM 42.1869 -104.5372 72° East 504 580 39,000  Level Denver Center
04:15PM 42.2306 -104.3678 71° East 503 579 39,000  Level Denver Center
04:16PM 42.2808 -104.1678 71° East 506 582 39,000  Level Denver Center
04:17PM 42.3253 -104.0006 70° East 501 577 39,000  Level Denver Center
04:18PM 42.3686 -103.7989 74° East 510 587 39,000  Level Denver Center
04:19PM 42.3808 -103.6194 85° East 506 582 39,000  Level Denver Center
04:20PM 42.3944 -103.4097 85° East 506 582 39,000  Level Denver Center
04:21PM 42.4058 -103.2311 85° East 500 575 39,000  Level Denver Center
04:22PM 42.4203 -103.0214 85° East 503 579 39,000  Level Denver Center
04:23PM 42.4322 -102.8425 85° East 500 575 39,000  Level Denver Center
04:24PM 42.4450 -102.6342 85° East 499 574 39,000  Level Denver Center
04:25PM 42.4533 -102.4581 86° East 491 565 39,000  Level Denver Center
04:26PM 42.4653 -102.2528 85° East 490 564 39,000  Level Denver Center
04:27PM 42.4725 -102.0789 87° East 483 556 39,000  Level Denver Center
04:28PM 42.4847 -101.8772 85° East 482 555 39,000  Level Denver Center
04:29PM 42.4936 -101.6883 86° East 487 560 39,000  Level Denver Center
04:30PM 42.5008 -101.5186 87° East 477 549 39,000  Level Denver Center
04:31PM 42.5094 -101.3453 86° East 479 551 39,000  Level Denver Center
04:32PM 42.5169 -101.1467 87° East 473 544 39,000  Level Denver Center
04:33PM 42.5244 -100.9761 87° East 473 544 39,000  Level Denver Center
04:34PM 42.5325 -100.7758 87° East 477 549 39,000  Level Denver Center
04:35PM 42.5400 -100.6047 87° East 475 547 39,000  Level Denver Center
04:36PM 42.5469 -100.4028 87° East 478 550 39,000  Level Denver Center
04:37PM 42.5539 -100.2308 87° East 477 549 39,000  Level Denver Center
04:38PM 42.5592 -100.0661 87° East 474 545 39,000  Level Minneapolis Center
04:39PM 42.5653 -99.8858 87° East 477 549 39,000  Level Minneapolis Center
04:40PM 42.5719 -99.7056 87° East 477 549 39,000  Level Minneapolis Center
04:41PM 42.5769 -99.5247 88° East 479 551 39,000  Level Minneapolis Center
04:43PM 42.5825 -99.3058 88° East 480 552 39,000  Level Denver Center
04:44PM 42.5875 -99.1269 88° East 477 549 39,000  Level Denver Center
04:45PM 42.5925 -98.9428 88° East 483 556 39,000  Level Denver Center
04:46PM 42.5967 -98.7625 88° East 483 556 39,000  Level Minneapolis Center
04:47PM 42.6008 -98.5822 88° East 479 551 39,000  Level Minneapolis Center
04:48PM 42.6044 -98.4000 88° East 481 554 39,000  Level Minneapolis Center
04:49PM 42.6081 -98.2178 88° East 482 555 39,000  Level Minneapolis Center
04:50PM 42.6114 -98.0019 89° East 478 550 39,000  Level Minneapolis Center
04:51PM 42.6144 -97.8300 89° East 478 550 39,000  Level Minneapolis Center
04:52PM 42.6172 -97.6494 89° East 479 551 39,000  Level Minneapolis Center
04:53PM 42.6192 -97.4706 89° East 477 549 39,000  Level Minneapolis Center
04:54PM 42.6214 -97.2892 89° East 479 551 39,000  Level Minneapolis Center
04:55PM 42.6225 -97.0736 90° East 476 548 39,000  Level Minneapolis Center
04:56PM 42.6242 -96.8931 89° East 477 549 39,000  Level Minneapolis Center
04:57PM 42.6258 -96.7111 89° East 479 551 39,000  Level Minneapolis Center
04:58PM 42.6256 -96.5667 90° East 479 551 39,000  Level Minneapolis Center
04:59PM 42.6272 -96.3503 89° East 477 549 39,000  Level Minneapolis Center
05:00PM 42.6272 -96.1697 90° East 477 549 39,100  Climbing Minneapolis Center
05:01PM 42.6264 -95.9539 90° East 476 548 39,000 -60 Descending Minneapolis Center
05:02PM 42.6264 -95.7736 90° East 476 548 39,000  Level Minneapolis Center
05:03PM 42.6247 -95.5925 91° East 479 551 39,000  Level Minneapolis Center
05:04PM 42.6236 -95.4139 90° East 476 548 39,000  Level Minneapolis Center
05:05PM 42.6225 -95.2353 90° East 473 544 39,000  Level Minneapolis Center
05:06PM 42.6214 -95.0525 90° East 478 550 39,000  Level Minneapolis Center
05:07PM 42.6197 -94.8667 91° East 489 563 39,000  Level Minneapolis Center
05:08PM 42.6169 -94.6450 91° East 490 564 39,000  Level Minneapolis Center
05:09PM 42.6125 -94.4689 92° East 493 567 39,000  Level Minneapolis Center
05:10PM 42.6094 -94.2864 91° East 489 563 39,000  Level Minneapolis Center
05:12PM 42.6119 -94.1044 89° East 488 562 39,000  Level Minneapolis Center
05:13PM 42.6144 -93.8861 89° East 487 560 39,000  Level Minneapolis Center
05:14PM 42.6153 -93.7025 90° East 490 564 39,000  Level Minneapolis Center
05:15PM 42.6147 -93.5194 90° East 489 563 39,000  Level Minneapolis Center
05:16PM 42.6158 -93.3350 89° East 492 566 39,000  Level Minneapolis Center
05:17PM 42.6164 -93.1522 90° East 491 565 39,000  Level Minneapolis Center
05:18PM 42.6156 -92.9317 90° East 492 566 39,000  Level Minneapolis Center
05:19PM 42.6161 -92.7478 90° East 493 567 39,000  Level Minneapolis Center
05:20PM 42.6153 -92.5639 90° East 493 567 39,000  Level Minneapolis Center
05:21PM 42.6139 -92.3806 91° East 492 566 39,000  Level Minneapolis Center
05:22PM 42.6119 -92.1617 91° East 491 565 39,000  Level Minneapolis Center
05:23PM 42.6103 -91.9797 91° East 491 565 39,000  Level Minneapolis Center
05:24PM 42.6069 -91.7997 91° East 489 563 39,000  Level Minneapolis Center
05:25PM 42.6039 -91.6197 91° East 491 565 39,000  Level Minneapolis Center
05:26PM 42.6003 -91.4019 91° East 496 571 39,000  Level Minneapolis Center
05:27PM 42.5975 -91.2231 91° East 488 562 39,000  Level Minneapolis Center
05:28PM 42.5939 -91.0403 91° East 488 562 39,000  Level Minneapolis Center
05:29PM 42.5900 -90.8575 92° East 491 565 39,000  Level Minneapolis Center
05:30PM 42.5853 -90.6406 92° East 487 560 39,000  Level Minneapolis Center
05:31PM 42.5819 -90.4244 91° East 486 559 39,000  Level Chicago Center
05:33PM 42.5761 -90.2058 92° East 488 562 39,000  Level Chicago Center
05:34PM 42.5739 -90.0228 91° East 491 565 39,000  Level Chicago Center
05:35PM 42.5672 -89.8483 93° East 488 562 39,000  Level Chicago Center
05:36PM 42.5597 -89.6336 93° East 487 560 39,000  Level Chicago Center
05:37PM 42.5547 -89.4506 92° East 486 559 39,000  Level Chicago Center
05:38PM 42.5483 -89.2672 93° East 486 559 39,000  Level Chicago Center
05:39PM 42.5425 -89.0825 92° East 490 564 39,000  Level Chicago Center
05:40PM 42.5356 -88.8994 93° East 488 562 39,000  Level Chicago Center
05:41PM 42.5281 -88.6842 93° East 489 563 39,000  Level Chicago Center
05:42PM 42.5203 -88.5000 93° East 491 565 39,000  Level Chicago Center
05:43PM 42.5128 -88.3106 93° East 502 578 39,000  Level Chicago Center
05:44PM 42.5044 -88.1253 93° East 498 573 39,000  Level Chicago Center
05:45PM 42.4983 -87.9381 92° East 497 572 39,000  Level Chicago Center
05:46PM 42.4992 -87.7428 90° East 495 570 39,000  Level Chicago Center
05:47PM 42.4989 -87.5569 90° East 496 571 39,000  Level Chicago Center
05:48PM 42.4972 -87.3339 91° East 494 568 39,000  Level Chicago Center
05:49PM 42.4964 -87.1492 90° East 492 566 39,000  Level Chicago Center
05:50PM 42.4956 -86.9678 90° East 486 559 39,000  Level Chicago Center
05:51PM 42.4931 -86.7856 91° East 487 560 39,000  Level Chicago Center
05:52PM 42.4903 -86.5928 91° East 484 557 39,000  Level Chicago Center
05:53PM 42.4886 -86.4119 91° East 485 558 39,000  Level Chicago Center
05:54PM 42.4850 -86.2333 92° East 480 552 39,000  Level Chicago Center
05:55PM 42.4817 -86.0181 91° East 482 555 39,000  Level Chicago Center
05:56PM 42.4794 -85.8383 91° East 483 556 39,000  Level Chicago Center
05:57PM 42.4750 -85.6586 92° East 483 556 39,000  Level Chicago Center
05:58PM 42.4731 -85.4775 91° East 484 557 39,000  Level Chicago Center
05:59PM 42.4694 -85.2961 91° East 485 558 39,000  Level Chicago Center
06:00PM 42.4642 -85.0797 92° East 482 555 39,000  Level Chicago Center
06:01PM 42.4597 -84.9000 92° East 480 552 39,000  Level Chicago Center
06:03PM 42.4553 -84.7214 92° East 478 550 39,000  Level Chicago Center
06:04PM 42.4494 -84.5411 92° East 482 555 39,000  Level Chicago Center
06:05PM 42.4444 -84.3619 92° East 477 549 39,000  Level Chicago Center
06:05PM 42.4389 -84.2378 93° East 476 548 39,000  Level Cleveland Center
06:06PM 42.4336 -84.0583 92° East 478 550 39,000  Level Cleveland Center
06:07PM 42.4269 -83.8797 93° East 477 549 39,000  Level Cleveland Center
06:08PM 42.4203 -83.6997 93° East 475 547 39,000  Level Cleveland Center
06:09PM 42.4128 -83.4933 93° East 481 554 39,000  Level Cleveland Center
06:10PM 42.4061 -83.3114 93° East 482 555 39,000  Level Cleveland Center
06:11PM 42.3986 -83.1497 94° East 480 552 39,000  Level Cleveland Center
06:12PM 42.3903 -82.9736 94° East 472 543 39,000  Level Cleveland Center
06:13PM 42.3794 -82.7628 94° East 469 540 39,000  Level Cleveland Center
06:14PM 42.3639 -82.5892 97° East 467 537 39,000  Level Cleveland Center
06:15PM 42.3483 -82.4153 97° East 466 536 39,000  Level Cleveland Center
06:17PM 42.3328 -82.2406 97° East 468 539 39,000  Level Cleveland Center
06:18PM 42.3167 -82.0431 96° East 465 535 39,000  Level Cleveland Center
06:19PM 42.3008 -81.8675 97° East 465 535 39,000  Level Cleveland Center
06:20PM 42.2844 -81.6908 97° East 468 539 39,000  Level Cleveland Center
06:21PM 42.2683 -81.5167 97° East 464 534 39,000  Level Cleveland Center
06:22PM 42.2511 -81.3414 98° East 466 536 39,000  Level Cleveland Center
06:23PM 42.2347 -81.1661 97° East 466 536 39,000  Level Cleveland Center
06:24PM 42.2175 -80.9914 98° East 465 535 39,000  Level Cleveland Center
06:25PM 42.2011 -80.8169 97° East 464 534 39,000  Level Cleveland Center
06:26PM 42.1797 -80.6131 98° East 466 536 39,000  Level Cleveland Center
06:27PM 42.1622 -80.4369 98° East 467 537 39,000  Level Cleveland Center
06:28PM 42.1450 -80.2661 98° East 457 526 39,000  Level Cleveland Center
06:29PM 42.1272 -80.0989 98° East 448 516 39,000  Level Cleveland Center
06:30PM 42.1069 -79.9164 98° East 441 507 39,000  Level Cleveland Center
06:31PM 42.1061 -79.7542 90° East 443 510 39,000  Level Cleveland Center
06:32PM 42.1539 -79.6086 66° East 429 494 39,000  Level Cleveland Center
06:33PM 42.2053 -79.4664 64° Northeast 426 490 39,000  Level Cleveland Center
06:34PM 42.2181 -79.3075 84° East 445 512 39,000  Level Cleveland Center
06:35PM 42.1800 -79.1472 108° East 453 521 39,000  Level Cleveland Center
06:36PM 42.1347 -78.9542 107° East 453 521 39,000  Level Cleveland Center
06:37PM 42.0964 -78.7972 108° East 445 512 39,000  Level Cleveland Center
06:38PM 42.0589 -78.6386 108° East 446 513 39,000  Level Cleveland Center
06:39PM 42.0200 -78.4811 108° East 446 513 39,000  Level Cleveland Center
06:40PM 41.9819 -78.3222 108° East 448 516 39,000  Level Cleveland Center
06:41PM 41.9372 -78.1414 108° East 451 519 39,000  Level Cleveland Center
06:42PM 41.8944 -77.9708 109° East 453 521 39,000 -840 Level Cleveland Center
06:43PM 41.8553 -77.8117 108° East 452 520 37,300 -1,800 Descending Cleveland Center
06:44PM 41.8125 -77.6511 110° East 457 526 35,300 -1,140 Descending Cleveland Center
06:45PM 41.7642 -77.4708 110° East 459 528 35,000 -180 Descending Cleveland Center
06:47PM 41.7231 -77.3128 109° East 455 524 35,000  Level Cleveland Center
06:48PM 41.6803 -77.1567 110° East 451 519 35,000  Level Cleveland Center
06:49PM 41.6367 -76.9975 110° East 455 524 35,000  Level Cleveland Center
06:50PM 41.5825 -76.8056 111° Southeast 457 526 35,000  Level New York Center
06:51PM 41.5458 -76.6664 109° East 457 526 35,000  Level New York Center
06:52PM 41.5036 -76.5103 110° East 451 519 35,000  Level New York Center
06:53PM 41.4631 -76.3519 109° East 446 513 35,000  Level New York Center
06:54PM 41.4242 -76.2019 109° East 456 525 35,000 -120 Level New York Center
06:55PM 41.3658 -76.0203 113° Southeast 466 536 34,800 -1,440 Descending New York Center
06:56PM 41.3225 -75.8678 111° Southeast 448 516 32,200 -2,880 Descending New York Center
06:57PM 41.2792 -75.7072 110° East 448 516 29,100 -2,880 Descending New York Center
06:58PM 41.2233 -75.5458 115° Southeast 462 532 26,500 -2,520 Descending New York Center
06:59PM 41.1731 -75.3961 114° Southeast 462 532 24,100 -1,800 Descending New York Center
07:00PM 41.1247 -75.2442 113° Southeast 451 519 23,000 -600 Descending New York Center
07:01PM 41.0758 -75.1061 115° Southeast 434 499 23,000  Level New York Center
07:02PM 41.0344 -74.9825 114° Southeast 398 458 23,000  Level New York Center
07:03PM 40.9969 -74.8647 113° Southeast 384 442 23,000 -180 Level New York Center
07:04PM 40.9950 -74.7381 91° East 357 411 22,700 -1,140 Descending New York Center
07:05PM 41.0444 -74.6253 60° Northeast 327 376 20,800 -1,500 Descending New York Center
07:06PM 41.0669 -74.5111 75° East 327 376 19,700 -840 Descending New York Center
07:07PM 41.0228 -74.3878 115° Southeast 326 375 19,200 -360 Descending New York Center
07:08PM 40.9742 -74.2781 120° Southeast 332 382 19,000 -120 Descending New York Center
07:09PM 40.9139 -74.1981 135° Southeast 333 383 19,000 -540 Level New York Center
07:10PM 40.8000 -74.1333 157° South 352 405 18,000 -1,200 Descending New York TRACON
07:11PM 40.7167 -74.0833 156° South 346 398 16,700 -1,260 Descending New York TRACON
07:12PM 40.6333 -74.0333 156° South 340 391 15,700 -1,320 Descending New York TRACON
07:13PM 40.5500 -73.9833 155° Southeast 331 381 14,100 -1,620 Descending New York TRACON
07:14PM 40.4667 -73.9167 149° Southeast 321 369 12,300 -1,920 Descending New York TRACON
07:15PM 40.4000 -73.8667 150° Southeast 308 354 10,500 -1,860 Descending New York TRACON
07:16PM 40.3667 -73.7667 114° Southeast 294 338 8,800 -1,260 Descending New York TRACON
07:17PM 40.3667 -73.6667 90° East 291 335 8,000 -420 Descending New York TRACON
07:18PM 40.4167 -73.6000 45° Northeast 239 275 8,000 -240 Level New York TRACON
07:19PM 40.4667 -73.5500 37° Northeast 238 274 7,600 -540 Descending New York TRACON
07:20PM 40.5167 -73.5000 37° Northeast 238 274 7,000 -720 Descending New York TRACON
07:21PM 40.5833 -73.4667 21° North 240 276 6,200 -1,200 Descending New York TRACON
07:22PM 40.6500 -73.4500 11° North 228 262 4,700 -1,680 Descending New York TRACON
07:23PM 40.7000 -73.4667 346° North 220 253 2,900 -1,380 Descending New York TRACON
07:24PM 40.7500 -73.5000 333° Northwest 205 236 2,000 -480 Descending New York TRACON
07:25PM 40.7667 -73.5667 288° West 176 203 2,000  Level New York TRACON
07:26PM 40.7667 -73.6167 270° West 170 196 2,000  Level New York TRACON
07:27PM 40.7500 -73.6667 246° West 146 168 2,000 -240 Level New York TRACON
07:28PM 40.7167 -73.7000 217° Southwest 149 171 1,600 -540 Descending New York TRACON
07:29PM 40.6833 -73.7167 201° Southwest 121 139 1,000 -600 Descending New York TRACON
07:30PM 40.6500 -73.7500 217° Southwest 119 137 400 -600 Descending New York TRACON